Time;durP1;ratioP1;P1;durP2;ratioP2;P2;SDS_P1;SDS_P2;PMS_P1;PMS_P2;Temp;Humidity;BMP_temperature;BMP_pressure;BME280_temperature;BME280_humidity;BME280_pressure;Samples;Min_cycle;Max_cycle;Signal;HPM_P1;HPM_P2
2023/03/10 00:01:14;;;;;;;18.23;3.78;;;;;;;13.88;nan;98391.31;4950370;28;20059;-86
2023/03/10 00:03:42;;;;;;;26.88;5.10;;;;;;;13.91;nan;98384.03;4956212;28;20129;-85
2023/03/10 00:06:11;;;;;;;20.63;3.47;;;;;;;13.81;nan;98379.78;4957039;28;20128;-81
2023/03/10 00:08:38;;;;;;;23.33;4.72;;;;;;;13.84;nan;98376.78;4954243;28;20399;-81
2023/03/10 00:11:05;;;;;;;12.25;3.40;;;;;;;13.57;nan;98365.88;4954667;28;20568;-78
2023/03/10 00:13:32;;;;;;;11.15;3.17;;;;;;;14.06;nan;98357.00;4946541;28;20466;-83
2023/03/10 00:15:58;;;;;;;4.65;2.10;;;;;;;21.75;nan;98421.94;4954736;28;20080;-80
2023/03/10 00:18:25;;;;;;;5.40;1.15;;;;;;;18.99;nan;98411.22;4953948;28;20059;-81
2023/03/10 00:20:53;;;;;;;5.18;1.58;;;;;;;18.67;nan;98367.91;4953375;28;20102;-81
2023/03/10 00:23:21;;;;;;;3.22;2.03;;;;;;;16.47;nan;98331.16;4951965;28;20062;-81
2023/03/10 00:25:59;;;;;;;7.20;3.00;;;;;;;15.60;nan;98320.56;4952149;28;20057;-82
2023/03/10 00:28:26;;;;;;;4.10;1.20;;;;;;;13.89;nan;98314.22;4951279;28;20429;-82
2023/03/10 00:31:02;;;;;;;4.88;1.73;;;;;;;15.48;nan;98309.75;4956559;28;20051;-85
2023/03/10 00:33:30;;;;;;;14.68;1.88;;;;;;;16.15;nan;98303.66;4948911;28;20051;-79
2023/03/10 00:36:08;;;;;;;8.55;2.38;;;;;;;15.65;nan;98299.59;4949167;28;20078;-81
2023/03/10 00:38:35;;;;;;;1.88;0.55;;;;;;;16.35;nan;98300.81;4948201;28;20769;-80
2023/03/10 00:41:05;;;;;;;6.93;1.63;;;;;;;16.17;nan;98301.94;4948521;28;20059;-80
2023/03/10 00:43:32;;;;;;;6.10;2.00;;;;;;;15.68;nan;98293.78;4948715;28;20097;-82
2023/03/10 00:45:59;;;;;;;5.30;1.73;;;;;;;16.09;nan;98289.66;4931354;28;20150;-80
2023/03/10 00:48:26;;;;;;;8.57;2.65;;;;;;;15.08;nan;98291.72;4949231;28;20061;-80
2023/03/10 00:50:53;;;;;;;6.60;2.35;;;;;;;16.32;nan;98293.44;4948145;28;20047;-81
2023/03/10 00:53:19;;;;;;;4.53;1.42;;;;;;;15.62;nan;98264.34;4948303;28;20051;-79
2023/03/10 00:55:59;;;;;;;4.35;1.95;;;;;;;15.75;nan;98281.44;4950633;28;20531;-79
2023/03/10 00:58:27;;;;;;;6.55;2.40;;;;;;;15.81;nan;98280.25;4944377;28;20047;-81
2023/03/10 01:00:54;;;;;;;7.97;2.70;;;;;;;15.94;nan;98269.50;4950683;28;20047;-80
2023/03/10 01:03:22;;;;;;;7.03;1.88;;;;;;;15.92;nan;98263.63;4950837;28;20514;-78
2023/03/10 01:05:49;;;;;;;8.40;3.15;;;;;;;16.08;nan;98270.63;4953626;28;20086;-79
2023/03/10 01:08:17;;;;;;;8.07;2.08;;;;;;;15.91;nan;98255.75;4958712;28;20106;-79
2023/03/10 01:10:44;;;;;;;1.90;1.40;;;;;;;16.21;nan;98271.00;4956457;29;20051;-76
2023/03/10 01:13:13;;;;;;;1.38;0.80;;;;;;;16.08;nan;98256.69;4966840;28;20136;-86
2023/03/10 01:15:40;;;;;;;6.28;1.80;;;;;;;15.78;nan;98275.66;4974933;28;20141;-85
2023/03/10 01:18:07;;;;;;;2.17;1.25;;;;;;;16.13;nan;98275.50;4976259;28;20039;-86
2023/03/10 01:20:34;;;;;;;4.72;1.58;;;;;;;16.14;nan;98269.44;4965222;28;20035;-87
2023/03/10 01:23:01;;;;;;;4.95;2.00;;;;;;;15.83;nan;98293.69;4962801;28;20607;-80
2023/03/10 01:25:27;;;;;;;9.77;1.80;;;;;;;15.66;nan;98293.50;4960843;28;20051;-79
2023/03/10 01:27:54;;;;;;;6.15;1.88;;;;;;;15.36;nan;98292.13;4948560;28;20052;-80
2023/03/10 01:30:21;;;;;;;1.55;1.10;;;;;;;15.55;nan;98307.31;4950654;28;20051;-79
2023/03/10 01:32:47;;;;;;;4.35;1.90;;;;;;;15.12;nan;98295.06;4957134;28;20229;-80
2023/03/10 01:35:14;;;;;;;4.55;1.30;;;;;;;15.39;nan;98305.84;4953019;28;20059;-82
2023/03/10 01:37:40;;;;;;;4.88;1.90;;;;;;;14.98;nan;98309.81;4959011;28;20449;-84
2023/03/10 01:40:15;;;;;;;4.25;1.33;;;;;;;15.16;nan;98315.13;4958073;28;20062;-82
2023/03/10 01:42:42;;;;;;;3.95;1.30;;;;;;;16.06;nan;98323.38;4953247;28;20490;-81
2023/03/10 01:45:29;;;;;;;0.75;0.63;;;;;;;16.47;nan;98327.59;4964938;28;20186;-82
2023/03/10 01:47:56;;;;;;;4.75;1.65;;;;;;;16.69;nan;98328.56;4961415;28;20134;-79
2023/03/10 01:50:23;;;;;;;4.90;2.03;;;;;;;16.65;nan;98324.47;4965853;28;20054;-81
2023/03/10 01:52:57;;;;;;;6.18;2.70;;;;;;;17.07;nan;98330.09;4970538;28;20106;-80
2023/03/10 01:55:28;;;;;;;1.40;0.80;;;;;;;17.16;nan;98329.91;4953917;28;20055;-78
2023/03/10 01:57:56;;;;;;;7.93;3.13;;;;;;;17.50;nan;98314.88;4939571;29;20226;-80
2023/03/10 02:00:24;;;;;;;1.83;1.23;;;;;;;17.38;nan;98316.09;4959479;28;20062;-80
2023/03/10 02:03:13;;;;;;;4.78;2.13;;;;;;;16.81;nan;98323.84;4960979;28;20071;-82
2023/03/10 02:05:44;;;;;;;3.85;1.75;;;;;;;16.99;nan;98321.44;4952831;28;20055;-80
2023/03/10 02:08:11;;;;;;;6.05;2.33;;;;;;;17.28;nan;98321.09;4948334;28;20055;-79
2023/03/10 02:10:38;;;;;;;8.15;2.92;;;;;;;17.65;nan;98316.22;4948796;28;20050;-81
2023/03/10 02:13:05;;;;;;;6.05;2.33;;;;;;;16.78;nan;98319.97;4951587;28;20079;-81
2023/03/10 02:15:32;;;;;;;6.47;2.17;;;;;;;17.69;nan;98318.78;4951683;28;20124;-81
2023/03/10 02:18:02;;;;;;;7.53;3.35;;;;;;;17.39;nan;98320.41;4955061;28;20766;-79
2023/03/10 02:20:39;;;;;;;8.02;3.38;;;;;;;17.61;nan;98317.72;4957233;28;20101;-82
2023/03/10 02:23:13;;;;;;;9.45;2.63;;;;;;;17.79;nan;98304.06;4951501;28;20462;-78
2023/03/10 02:25:56;;;;;;;6.57;2.88;;;;;;;17.38;nan;98308.44;4956086;28;20057;-83
2023/03/10 02:28:23;;;;;;;9.13;3.65;;;;;;;17.48;nan;98309.03;4955178;28;20121;-80
2023/03/10 02:30:52;;;;;;;10.85;4.22;;;;;;;17.37;nan;98301.34;4954820;28;20083;-82
2023/03/10 02:33:26;;;;;;;12.00;4.25;;;;;;;17.79;nan;98314.50;4954021;28;20106;-80
2023/03/10 02:35:53;;;;;;;9.73;3.60;;;;;;;17.05;nan;98307.50;4957825;28;20055;-79
2023/03/10 02:38:20;;;;;;;4.95;2.63;;;;;;;16.85;nan;98302.03;4960826;28;20055;-80
2023/03/10 02:40:49;;;;;;;9.40;3.83;;;;;;;16.84;nan;98306.09;4964164;28;20054;-79
2023/03/10 02:43:22;;;;;;;15.07;4.80;;;;;;;16.99;nan;98306.69;4973129;28;20085;-83
2023/03/10 02:45:50;;;;;;;14.10;4.65;;;;;;;15.22;nan;98295.69;4967494;28;20143;-82
2023/03/10 02:48:28;;;;;;;8.70;3.17;;;;;;;14.52;nan;98306.03;4966664;28;20103;-82
2023/03/10 02:50:56;;;;;;;7.18;3.08;;;;;;;17.19;nan;98300.97;4959430;28;20043;-81
2023/03/10 02:53:25;;;;;;;5.25;1.67;;;;;;;16.88;nan;98304.56;4956211;28;20136;-81
2023/03/10 02:55:53;;;;;;;7.57;3.60;;;;;;;16.45;nan;98291.81;4949948;28;20062;-80
2023/03/10 02:58:22;;;;;;;11.82;4.65;;;;;;;16.36;nan;98305.91;4948309;28;20082;-83
2023/03/10 03:00:49;;;;;;;6.15;2.60;;;;;;;15.92;nan;98308.25;4948237;28;20040;-82
2023/03/10 03:03:18;;;;;;;1.33;1.23;;;;;;;16.11;nan;98303.91;4957011;28;20059;-79
2023/03/10 03:05:45;;;;;;;5.65;2.40;;;;;;;16.45;nan;98307.78;4954999;28;20474;-81
2023/03/10 03:08:12;;;;;;;18.52;5.75;;;;;;;16.81;nan;98307.81;4957337;28;20050;-80
2023/03/10 03:10:39;;;;;;;16.73;6.10;;;;;;;16.64;nan;98298.56;4957290;28;20051;-80
2023/03/10 03:13:06;;;;;;;17.40;6.25;;;;;;;17.15;nan;98300.44;4958373;28;20092;-81
2023/03/10 03:15:33;;;;;;;16.20;5.88;;;;;;;17.22;nan;98300.72;4956130;28;20058;-77
2023/03/10 03:18:00;;;;;;;16.88;7.32;;;;;;;17.04;nan;98294.81;4940145;28;20059;-80
2023/03/10 03:20:29;;;;;;;18.10;6.88;;;;;;;16.47;nan;98286.50;4955197;28;21008;-80
2023/03/10 03:22:57;;;;;;;8.30;3.55;;;;;;;16.04;nan;98293.19;4960623;28;20459;-80
2023/03/10 03:25:27;;;;;;;3.55;2.15;;;;;;;16.86;nan;98284.00;4955623;28;20066;-80
2023/03/10 03:27:55;;;;;;;11.40;4.32;;;;;;;17.34;nan;98293.16;4955609;28;20110;-79
2023/03/10 03:30:25;;;;;;;6.68;3.05;;;;;;;16.71;nan;98286.19;4953508;28;20050;-81
2023/03/10 03:32:53;;;;;;;9.80;2.70;;;;;;;17.02;nan;98283.34;4953737;28;20421;-81
2023/03/10 03:35:26;;;;;;;6.88;2.90;;;;;;;16.87;nan;98297.47;4963723;28;20055;-82
2023/03/10 03:37:53;;;;;;;11.82;3.70;;;;;;;16.50;nan;98290.34;4956819;28;20711;-85
2023/03/10 03:40:21;;;;;;;12.25;4.72;;;;;;;17.67;nan;98304.53;4959289;28;20058;-83
2023/03/10 03:42:51;;;;;;;10.68;5.15;;;;;;;16.65;nan;98296.53;4965887;28;20058;-85
2023/03/10 03:45:23;;;;;;;5.88;2.60;;;;;;;16.79;nan;98301.22;4957807;28;20047;-81
2023/03/10 03:47:50;;;;;;;8.20;3.70;;;;;;;16.77;nan;98296.13;4959950;28;20055;-80
2023/03/10 03:50:18;;;;;;;5.45;3.15;;;;;;;17.23;nan;98291.09;4970612;28;20051;-81
2023/03/10 03:52:45;;;;;;;15.68;5.90;;;;;;;17.46;nan;98286.41;4972389;28;20170;-82
2023/03/10 03:55:14;;;;;;;15.20;6.10;;;;;;;17.72;nan;98292.63;4963526;28;20066;-83
2023/03/10 03:57:41;;;;;;;11.93;5.03;;;;;;;17.48;nan;98295.81;4957193;28;20066;-84
2023/03/10 04:00:11;;;;;;;2.83;1.77;;;;;;;16.97;nan;98290.44;4971691;28;20135;-80
2023/03/10 04:02:38;;;;;;;29.13;10.60;;;;;;;17.38;nan;98286.09;4962722;28;20072;-83
2023/03/10 04:05:06;;;;;;;12.82;5.55;;;;;;;17.02;nan;98286.91;4971842;28;20059;-81
2023/03/10 04:07:33;;;;;;;5.38;2.47;;;;;;;16.76;nan;98283.44;4970574;28;20130;-82
2023/03/10 04:09:59;;;;;;;11.10;2.88;;;;;;;15.70;nan;98273.78;4974535;28;20086;-83
2023/03/10 04:12:28;;;;;;;17.25;6.15;;;;;;;16.89;nan;98277.41;4954382;28;20132;-81
2023/03/10 04:14:54;;;;;;;11.00;4.50;;;;;;;14.56;nan;98280.81;4957453;29;20125;-85
2023/03/10 04:17:21;;;;;;;14.15;6.18;;;;;;;14.69;nan;98290.41;4956746;28;20100;-81
2023/03/10 04:19:47;;;;;;;15.57;6.07;;;;;;;14.25;nan;98289.66;4965330;28;20050;-82
2023/03/10 04:22:30;;;;;;;20.23;6.53;;;;;;;13.70;nan;98296.94;4960052;28;20066;-80
2023/03/10 04:24:56;;;;;;;4.68;1.73;;;;;;;13.65;nan;98296.84;4954379;28;20121;-79
2023/03/10 04:27:23;;;;;;;12.18;4.72;;;;;;;13.64;nan;98301.66;4960512;28;20509;-79
2023/03/10 04:29:49;;;;;;;10.65;3.78;;;;;;;16.24;nan;98339.78;4961223;28;20058;-80
2023/03/10 04:32:16;;;;;;;7.53;2.83;;;;;;;13.94;nan;98346.94;4954609;28;20089;-81
2023/03/10 04:34:42;;;;;;;10.25;4.03;;;;;;;28.32;nan;98407.13;4962503;28;20046;-78
2023/03/10 04:38:08;;;;;;;9.80;3.75;;;;;;;-141.00;100.00;68116.28;4961194;28;20514;-80
2023/03/10 04:40:36;;;;;;;38.22;9.45;;;;;;;30.39;nan;98474.53;4968314;28;20055;-81
2023/03/10 04:43:02;;;;;;;11.45;4.13;;;;;;;21.92;nan;98371.84;4964494;28;20090;-80
2023/03/10 04:45:29;;;;;;;9.40;3.42;;;;;;;19.95;nan;98291.44;4960891;28;20066;-81
2023/03/10 04:47:56;;;;;;;4.18;1.67;;;;;;;19.22;nan;98269.03;4961178;28;20583;-82
2023/03/10 04:50:22;;;;;;;20.40;7.25;;;;;;;19.38;nan;98260.59;4959512;28;20502;-81
2023/03/10 04:52:49;;;;;;;9.15;3.67;;;;;;;18.23;nan;98255.09;4956319;28;20055;-80
2023/03/10 04:55:16;;;;;;;10.32;4.05;;;;;;;18.43;nan;98264.06;4959777;28;20062;-81
2023/03/10 04:57:42;;;;;;;10.88;3.80;;;;;;;18.91;nan;98260.94;4972871;28;20118;-83
2023/03/10 05:00:11;;;;;;;14.13;5.28;;;;;;;19.15;nan;98261.91;4972052;28;20082;-84
2023/03/10 05:02:39;;;;;;;12.57;4.47;;;;;;;19.15;nan;98259.13;4956677;28;21400;-80
2023/03/10 05:05:06;;;;;;;15.07;5.82;;;;;;;19.26;nan;98267.53;4957653;28;20054;-80
2023/03/10 05:07:33;;;;;;;9.85;3.78;;;;;;;18.82;nan;98253.56;4957777;28;20051;-80
2023/03/10 05:09:59;;;;;;;20.58;5.60;;;;;;;19.38;nan;98254.22;4959458;28;20054;-82
2023/03/10 05:12:26;;;;;;;3.65;1.63;;;;;;;19.04;nan;98253.53;4957367;28;20592;-79
2023/03/10 05:14:52;;;;;;;13.20;5.03;;;;;;;19.52;nan;98242.72;4959445;28;20202;-84
2023/03/10 05:17:19;;;;;;;8.48;3.05;;;;;;;19.58;nan;98251.84;4958708;28;20127;-82
2023/03/10 05:19:45;;;;;;;2.95;1.40;;;;;;;19.38;nan;98252.19;4963136;28;20059;-82
2023/03/10 05:22:12;;;;;;;8.07;3.25;;;;;;;19.42;nan;98243.50;4966064;28;20498;-81
2023/03/10 05:24:39;;;;;;;8.40;2.83;;;;;;;19.60;nan;98248.50;4960706;28;20046;-83
2023/03/10 05:27:07;;;;;;;8.75;3.35;;;;;;;19.35;nan;98239.22;4962705;28;20062;-81
2023/03/10 05:29:34;;;;;;;12.55;3.15;;;;;;;19.37;nan;98230.28;4961961;28;20058;-81
2023/03/10 05:32:00;;;;;;;10.27;3.30;;;;;;;19.51;nan;98243.22;4965996;28;20438;-83
2023/03/10 05:34:27;;;;;;;13.68;4.68;;;;;;;19.68;nan;98230.63;4960870;28;20810;-83
2023/03/10 05:36:55;;;;;;;15.88;4.68;;;;;;;19.44;nan;98236.09;4958699;28;20051;-81
2023/03/10 05:39:22;;;;;;;19.23;4.10;;;;;;;19.94;nan;98236.59;4961465;28;20419;-84
2023/03/10 05:41:48;;;;;;;13.60;3.95;;;;;;;19.97;nan;98234.78;4962980;28;20043;-82
2023/03/10 05:44:15;;;;;;;12.35;3.75;;;;;;;20.09;nan;98225.78;4960795;28;20964;-82
2023/03/10 05:46:42;;;;;;;10.05;3.03;;;;;;;19.93;nan;98231.50;4963735;28;20059;-84
2023/03/10 05:49:08;;;;;;;10.82;3.65;;;;;;;19.48;nan;98219.75;4958855;28;20050;-81
2023/03/10 05:51:35;;;;;;;17.10;4.18;;;;;;;19.52;nan;98231.50;4960192;28;20073;-82
2023/03/10 05:54:04;;;;;;;16.02;3.72;;;;;;;19.35;nan;98227.22;4962824;28;20185;-81
2023/03/10 05:56:31;;;;;;;3.63;1.05;;;;;;;18.81;nan;98223.28;4960877;28;20059;-82
2023/03/10 05:58:57;;;;;;;10.25;3.10;;;;;;;19.26;nan;98233.09;4970659;28;20145;-82
2023/03/10 06:01:24;;;;;;;15.73;3.85;;;;;;;19.69;nan;98234.19;4962242;28;20051;-82
2023/03/10 06:03:50;;;;;;;12.02;3.25;;;;;;;19.71;nan;98229.59;4962148;28;20536;-81
2023/03/10 06:06:17;;;;;;;12.00;3.55;;;;;;;19.68;nan;98221.47;4957012;28;20166;-82
2023/03/10 06:08:44;;;;;;;9.95;3.28;;;;;;;19.62;nan;98218.69;4940445;28;20130;-80
2023/03/10 06:11:11;;;;;;;12.45;3.10;;;;;;;19.37;nan;98231.03;4958105;28;20043;-82
2023/03/10 06:13:37;;;;;;;12.73;3.03;;;;;;;19.41;nan;98225.91;4959271;28;20058;-80
2023/03/10 06:16:05;;;;;;;16.27;4.05;;;;;;;19.61;nan;98228.38;4961565;28;20140;-79
2023/03/10 06:18:33;;;;;;;14.40;4.10;;;;;;;19.85;nan;98222.88;4963803;28;20581;-80
2023/03/10 06:21:07;;;;;;;13.90;4.15;;;;;;;19.74;nan;98228.56;4963545;28;20059;-81
2023/03/10 06:23:34;;;;;;;25.50;5.15;;;;;;;19.90;nan;98232.53;4970585;28;20142;-83
2023/03/10 06:26:05;;;;;;;14.65;2.95;;;;;;;19.47;nan;98228.72;4961966;28;20082;-81
2023/03/10 06:28:35;;;;;;;12.55;3.15;;;;;;;19.58;nan;98229.41;4959311;28;20051;-81
2023/03/10 06:31:05;;;;;;;19.83;4.28;;;;;;;19.77;nan;98230.31;4957668;28;20051;-79
2023/03/10 06:33:32;;;;;;;3.60;1.52;;;;;;;19.18;nan;98218.84;4928502;28;1096108;-81
2023/03/10 06:35:59;;;;;;;18.33;4.18;;;;;;;19.47;nan;98228.72;4962347;28;20066;-82
2023/03/10 06:38:27;;;;;;;14.07;2.88;;;;;;;19.42;nan;98224.66;4968887;28;20062;-81
2023/03/10 06:40:53;;;;;;;16.58;4.53;;;;;;;19.87;nan;98233.56;4962006;28;20093;-82
2023/03/10 06:43:20;;;;;;;10.07;2.45;;;;;;;19.57;nan;98230.69;4969791;28;20066;-83
2023/03/10 06:45:47;;;;;;;13.02;3.63;;;;;;;19.79;nan;98239.00;4969309;28;20058;-83
2023/03/10 06:48:14;;;;;;;22.98;4.70;;;;;;;19.79;nan;98233.38;4962141;28;20058;-82
2023/03/10 06:50:42;;;;;;;3.45;0.80;;;;;;;19.12;nan;98237.72;4955304;28;20058;-78
2023/03/10 06:53:10;;;;;;;13.63;3.30;;;;;;;19.84;nan;98229.78;4958216;28;20051;-82
2023/03/10 06:55:37;;;;;;;8.75;2.70;;;;;;;19.59;nan;98242.16;4960157;28;20054;-81
2023/03/10 06:58:04;;;;;;;20.50;3.17;;;;;;;19.82;nan;98249.19;4959458;28;20106;-78
2023/03/10 07:00:30;;;;;;;20.63;4.35;;;;;;;19.84;nan;98248.66;4955939;28;20084;-80
2023/03/10 07:02:57;;;;;;;6.47;2.55;;;;;;;19.65;nan;98242.88;4940785;29;20058;-81
2023/03/10 07:05:26;;;;;;;4.45;1.48;;;;;;;19.36;nan;98249.13;4957075;29;20058;-81
2023/03/10 07:07:53;;;;;;;9.57;2.05;;;;;;;19.90;nan;98246.56;4954710;28;20069;-79
2023/03/10 07:10:20;;;;;;;6.07;1.83;;;;;;;19.26;nan;98245.09;4954331;29;20066;-78
2023/03/10 07:12:53;;;;;;;18.73;3.28;;;;;;;19.39;nan;98250.91;4955825;28;20125;-79
2023/03/10 07:15:21;;;;;;;3.30;1.38;;;;;;;19.56;nan;98253.63;4949375;28;20754;-81
2023/03/10 07:17:48;;;;;;;6.53;2.00;;;;;;;19.00;nan;98255.81;4956064;28;20667;-80
2023/03/10 07:20:15;;;;;;;3.30;1.50;;;;;;;18.89;nan;98266.28;4941689;28;20055;-82
2023/03/10 07:22:42;;;;;;;18.05;3.13;;;;;;;19.53;nan;98255.44;4962561;28;20106;-80
2023/03/10 07:25:08;;;;;;;12.07;2.28;;;;;;;20.05;nan;98264.59;4957387;28;20108;-82
2023/03/10 07:27:35;;;;;;;13.93;2.85;;;;;;;19.23;nan;98262.91;4960584;28;20065;-81
2023/03/10 07:30:03;;;;;;;1.63;1.40;;;;;;;19.11;nan;98264.22;4957881;28;20059;-80
2023/03/10 07:32:29;;;;;;;3.00;1.90;;;;;;;19.08;nan;98276.47;4949247;28;20059;-80
2023/03/10 07:34:56;;;;;;;6.03;1.27;;;;;;;19.51;nan;98272.00;4948201;28;20166;-79
2023/03/10 07:37:23;;;;;;;8.65;2.38;;;;;;;19.20;nan;98280.75;4957931;28;20055;-82
2023/03/10 07:39:49;;;;;;;9.18;1.77;;;;;;;19.63;nan;98279.09;4958846;28;20054;-81
2023/03/10 07:42:16;;;;;;;7.15;1.70;;;;;;;20.06;nan;98279.41;4958359;28;20056;-84
2023/03/10 07:44:42;;;;;;;2.72;1.15;;;;;;;19.86;nan;98279.75;4964012;28;20062;-80
2023/03/10 07:47:09;;;;;;;9.98;2.00;;;;;;;20.13;nan;98288.06;4964973;28;20082;-82
2023/03/10 07:49:36;;;;;;;11.45;2.20;;;;;;;19.86;nan;98288.19;4960876;28;20476;-81
2023/03/10 07:52:02;;;;;;;9.88;1.98;;;;;;;19.92;nan;98284.06;4959657;28;20062;-80
2023/03/10 07:54:29;;;;;;;9.20;1.48;;;;;;;19.81;nan;98286.19;4959289;28;20066;-82
2023/03/10 07:56:56;;;;;;;2.92;0.90;;;;;;;19.93;nan;98288.41;4955234;28;20062;-80
2023/03/10 07:59:22;;;;;;;8.75;2.85;;;;;;;19.88;nan;98286.38;4953670;28;20062;-78
2023/03/10 08:01:49;;;;;;;7.75;2.75;;;;;;;18.94;nan;98291.53;4956137;28;20055;-79
2023/03/10 08:04:15;;;;;;;16.08;4.90;;;;;;;19.49;nan;98288.59;4958060;28;20502;-80
2023/03/10 08:06:43;;;;;;;4.00;2.38;;;;;;;18.93;nan;98281.56;4957995;28;20055;-80
2023/03/10 08:09:10;;;;;;;7.05;3.28;;;;;;;23.15;nan;98408.28;4953417;28;20051;-76
2023/03/10 08:11:37;;;;;;;7.15;2.42;;;;;;;19.60;nan;98299.78;4973765;28;20055;-80
2023/03/10 08:14:03;;;;;;;14.52;3.15;;;;;;;19.22;nan;98286.63;4959527;28;20042;-81
2023/03/10 08:16:30;;;;;;;15.88;5.38;;;;;;;18.92;nan;98285.66;4959944;28;20059;-81
2023/03/10 08:18:57;;;;;;;4.45;1.90;;;;;;;18.44;nan;98285.16;4956252;28;20055;-81
2023/03/10 08:21:23;;;;;;;18.67;3.90;;;;;;;18.59;nan;98294.06;4961564;28;20458;-82
2023/03/10 08:23:50;;;;;;;11.80;2.67;;;;;;;18.19;nan;98290.97;4959158;28;20059;-84
2023/03/10 08:26:18;;;;;;;16.05;4.03;;;;;;;18.88;nan;98301.97;4944842;29;20055;-81
2023/03/10 08:28:45;;;;;;;18.23;4.63;;;;;;;19.04;nan;98301.16;4956882;28;20059;-81
2023/03/10 08:31:17;;;;;;;7.15;2.28;;;;;;;18.29;nan;98300.66;4959220;28;20054;-80
2023/03/10 08:33:45;;;;;;;11.35;2.78;;;;;;;18.35;nan;98304.97;4960429;28;20416;-84
2023/03/10 08:36:21;;;;;;;9.30;1.83;;;;;;;17.98;nan;98301.59;4959231;29;20059;-79
2023/03/10 08:38:49;;;;;;;11.68;3.78;;;;;;;18.17;nan;98307.47;4963801;28;20051;-81
2023/03/10 08:41:27;;;;;;;3.42;1.02;;;;;;;17.82;nan;98296.72;4961110;28;20051;-81
2023/03/10 08:43:56;;;;;;;8.32;1.65;;;;;;;17.49;nan;98302.19;4964124;28;20063;-80
2023/03/10 08:46:25;;;;;;;17.38;3.55;;;;;;;17.99;nan;98298.28;4958350;28;20051;-82
2023/03/10 08:48:52;;;;;;;15.18;2.22;;;;;;;17.78;nan;98299.75;4959556;28;20094;-82
2023/03/10 08:51:20;;;;;;;9.85;2.20;;;;;;;17.63;nan;98307.59;4961055;28;20043;-83
2023/03/10 08:53:48;;;;;;;10.93;2.95;;;;;;;18.09;nan;98304.41;4963167;28;20059;-81
2023/03/10 08:56:17;;;;;;;14.85;2.70;;;;;;;17.18;nan;98303.00;4969880;28;20050;-80
2023/03/10 08:58:44;;;;;;;9.55;2.42;;;;;;;17.66;nan;98311.41;4965899;28;20047;-84
2023/03/10 09:01:12;;;;;;;1.60;1.02;;;;;;;17.11;nan;98300.66;4956438;28;20053;-83
2023/03/10 09:03:42;;;;;;;8.77;2.35;;;;;;;17.07;nan;98310.53;4950721;28;20454;-82
2023/03/10 09:06:09;;;;;;;6.10;2.08;;;;;;;16.83;nan;98294.16;4952196;28;20047;-81
2023/03/10 09:08:35;;;;;;;9.75;1.85;;;;;;;17.80;nan;98311.22;4951949;29;20063;-82
2023/03/10 09:11:02;;;;;;;5.82;2.05;;;;;;;17.62;nan;98317.22;4951403;28;20117;-82
2023/03/10 09:13:29;;;;;;;2.75;1.58;;;;;;;17.70;nan;98312.69;4951335;28;20054;-80
2023/03/10 09:15:55;;;;;;;7.90;2.00;;;;;;;14.88;nan;98366.84;4949325;28;20751;-82
2023/03/10 09:18:22;;;;;;;2.17;0.73;;;;;;;-141.00;100.00;68116.28;4954695;28;20055;-83
2023/03/10 09:20:49;;;;;;;15.43;3.28;;;;;;;-141.00;100.00;68116.28;4952148;28;20090;-82
2023/03/10 09:23:16;;;;;;;12.95;4.20;;;;;;;-141.00;100.00;68116.28;4951308;28;20051;-81
2023/03/10 09:25:43;;;;;;;15.50;3.88;;;;;;;-141.00;100.00;68116.28;4947642;28;20051;-82
2023/03/10 09:28:10;;;;;;;18.67;4.75;;;;;;;-141.00;100.00;68116.28;4950670;28;20055;-82
2023/03/10 09:30:39;;;;;;;4.80;1.70;;;;;;;-141.00;100.00;68116.28;4951080;28;20047;-82
2023/03/10 09:33:12;;;;;;;17.77;3.92;;;;;;;-141.00;100.00;68116.28;4948184;28;20840;-82
2023/03/10 09:35:39;;;;;;;20.67;5.40;;;;;;;-141.00;100.00;68116.28;4948943;28;20074;-82
2023/03/10 09:38:11;;;;;;;15.07;4.05;;;;;;;-141.00;100.00;68116.28;4953531;28;20138;-83
2023/03/10 09:40:41;;;;;;;21.33;5.03;;;;;;;-141.00;100.00;68116.28;4954777;28;20051;-80
2023/03/10 09:43:18;;;;;;;17.48;3.22;;;;;;;-141.00;100.00;68116.28;4952656;28;20054;-81
2023/03/10 09:46:03;;;;;;;15.75;4.32;;;;;;;-141.00;100.00;68116.28;4949525;28;20058;-82
2023/03/10 09:48:45;;;;;;;19.45;5.00;;;;;;;-141.00;100.00;68116.28;4948899;28;20062;-84
2023/03/10 09:51:20;;;;;;;18.65;4.20;;;;;;;-141.00;100.00;68116.28;4933493;28;20052;-82
2023/03/10 09:54:12;;;;;;;3.42;1.60;;;;;;;-141.00;100.00;68116.28;4950008;28;20101;-84
2023/03/10 09:56:38;;;;;;;21.55;5.43;;;;;;;-141.00;100.00;68116.28;4945646;28;20078;-83
2023/03/10 09:59:13;;;;;;;11.23;1.58;;;;;;;-141.00;100.00;68116.28;4957391;28;20479;-85
2023/03/10 10:01:43;;;;;;;21.08;5.07;;;;;;;-141.00;100.00;68116.28;4951459;28;20560;-84
2023/03/10 10:04:11;;;;;;;6.63;1.60;;;;;;;-141.00;100.00;68116.28;4953192;28;20605;-84
2023/03/10 10:06:42;;;;;;;18.42;3.22;;;;;;;-141.00;100.00;68116.28;4954690;28;20043;-82
2023/03/10 10:09:41;;;;;;;5.63;1.80;;;;;;;-141.00;100.00;68116.28;4952871;28;20075;-83
2023/03/10 10:12:14;;;;;;;7.22;1.92;;;;;;;-141.00;100.00;68116.28;4953403;28;20047;-85
2023/03/10 10:14:42;;;;;;;23.58;4.22;;;;;;;-141.00;100.00;68116.28;4954518;28;20062;-83
2023/03/10 10:17:25;;;;;;;8.07;2.03;;;;;;;-141.00;100.00;68116.28;4953684;28;20138;-84
2023/03/10 10:19:56;;;;;;;26.63;5.20;;;;;;;-141.00;100.00;68116.28;4950878;28;20043;-83
2023/03/10 10:22:27;;;;;;;17.00;3.65;;;;;;;-141.00;100.00;68116.28;4952467;28;20059;-84
2023/03/10 10:25:30;;;;;;;4.70;1.55;;;;;;;-141.00;100.00;68116.28;4960821;28;20051;-86
2023/03/10 10:27:59;;;;;;;32.83;6.13;;;;;;;-141.00;100.00;68116.28;4887806;29;20076;-85
2023/03/10 10:30:37;;;;;;;6.60;2.75;;;;;;;-141.00;100.00;68116.28;4947517;28;20146;-83
2023/03/10 10:33:07;;;;;;;6.22;2.15;;;;;;;-141.00;100.00;68116.28;4957557;28;20058;-84
2023/03/10 10:35:39;;;;;;;11.13;3.10;;;;;;;-141.00;100.00;68116.28;4959020;28;20042;-80
2023/03/10 10:38:09;;;;;;;11.73;2.83;;;;;;;-141.00;100.00;68116.28;4959321;28;20063;-82
2023/03/10 10:41:03;;;;;;;7.68;2.47;;;;;;;-141.00;100.00;68116.28;4962114;28;20094;-82
2023/03/10 10:43:42;;;;;;;7.68;1.90;;;;;;;-141.00;100.00;68116.28;4962671;28;20225;-83
2023/03/10 10:46:10;;;;;;;11.05;2.95;;;;;;;-141.00;100.00;68116.28;4963090;28;20051;-84
2023/03/10 10:48:41;;;;;;;8.50;2.35;;;;;;;-141.00;100.00;68116.28;4953906;28;20074;-84
2023/03/10 10:51:29;;;;;;;3.05;1.60;;;;;;;-141.00;100.00;68116.28;4959867;28;20043;-81
2023/03/10 10:53:57;;;;;;;9.40;2.13;;;;;;;-141.00;100.00;68116.28;4964053;28;20170;-84
2023/03/10 10:56:24;;;;;;;4.43;2.03;;;;;;;-141.00;100.00;68116.28;4953055;28;20115;-82
2023/03/10 10:59:05;;;;;;;14.52;2.28;;;;;;;-141.00;100.00;68116.28;4973435;28;20051;-81
2023/03/10 11:01:49;;;;;;;13.02;2.35;;;;;;;-141.00;100.00;68116.28;4964103;28;20538;-84
2023/03/10 11:04:16;;;;;;;24.83;4.38;;;;;;;-141.00;100.00;68116.28;4962758;28;20066;-83
2023/03/10 11:06:43;;;;;;;3.92;1.27;;;;;;;-141.00;100.00;68116.28;4955650;28;20058;-84
2023/03/10 11:09:17;;;;;;;7.55;1.55;;;;;;;-141.00;100.00;68116.28;4965361;28;20857;-84
2023/03/10 11:11:58;;;;;;;8.68;2.47;;;;;;;-141.00;100.00;68116.28;4963978;28;20061;-80
2023/03/10 11:14:57;;;;;;;9.70;2.35;;;;;;;-141.00;100.00;68116.28;4967873;28;20054;-84
2023/03/10 11:17:32;;;;;;;9.95;3.35;;;;;;;-141.00;100.00;68116.28;4970412;28;20106;-81
2023/03/10 11:20:15;;;;;;;3.88;1.30;;;;;;;-141.00;100.00;68116.28;4978573;28;20081;-86
2023/03/10 11:23:03;;;;;;;5.97;1.70;;;;;;;-141.00;100.00;68116.28;4970287;28;20051;-82
2023/03/10 11:25:51;;;;;;;13.93;3.08;;;;;;;-141.00;100.00;68116.28;4960060;28;20114;-83
2023/03/10 11:28:30;;;;;;;2.40;0.98;;;;;;;-141.00;100.00;68116.28;4963375;28;20840;-82
2023/03/10 11:31:34;;;;;;;7.15;2.00;;;;;;;-141.00;100.00;68116.28;4962598;28;20506;-81
2023/03/10 11:34:24;;;;;;;3.90;1.23;;;;;;;-141.00;100.00;68116.28;4946689;28;20078;-81
2023/03/10 11:37:07;;;;;;;22.48;3.20;;;;;;;-141.00;100.00;68116.28;4966050;28;20047;-85
2023/03/10 11:39:40;;;;;;;6.03;1.60;;;;;;;-141.00;100.00;68116.28;4966327;28;20051;-81
2023/03/10 11:42:33;;;;;;;17.50;2.60;;;;;;;-141.00;100.00;68116.28;4960531;28;20055;-83
2023/03/10 11:45:35;;;;;;;1.08;1.00;;;;;;;-141.00;100.00;68116.28;4966635;28;20057;-81
2023/03/10 11:48:17;;;;;;;4.70;1.40;;;;;;;-141.00;100.00;68116.28;4964794;28;20043;-86
2023/03/10 11:50:53;;;;;;;16.77;1.98;;;;;;;-141.00;100.00;68116.28;4961484;28;20078;-83